sensor_id;sensor_type;location;lat;lon;timestamp;pressure;altitude;pressure_sealevel;temperature;humidity
44825;BME280;30542;47.928;2.138;2023-04-07T00:02:51;100581.47;;;18.71;49.83
44825;BME280;30542;47.928;2.138;2023-04-07T00:07:51;100590.28;;;18.72;49.18
44825;BME280;30542;47.928;2.138;2023-04-07T00:12:51;100593.16;;;18.70;49.82
44825;BME280;30542;47.928;2.138;2023-04-07T00:17:52;100585.16;;;18.70;49.42
44825;BME280;30542;47.928;2.138;2023-04-07T00:22:53;100579.53;;;18.67;49.59
44825;BME280;30542;47.928;2.138;2023-04-07T00:27:53;100590.19;;;18.67;49.42
44825;BME280;30542;47.928;2.138;2023-04-07T00:32:53;100586.94;;;18.64;49.60
44825;BME280;30542;47.928;2.138;2023-04-07T00:37:54;100586.94;;;18.64;49.82
44825;BME280;30542;47.928;2.138;2023-04-07T00:42:54;100581.88;;;18.63;49.22
44825;BME280;30542;47.928;2.138;2023-04-07T00:47:56;100578.41;;;18.62;49.78
44825;BME280;30542;47.928;2.138;2023-04-07T00:52:57;100585.03;;;18.60;49.22
44825;BME280;30542;47.928;2.138;2023-04-07T00:57:58;100575.41;;;18.59;49.50
44825;BME280;30542;47.928;2.138;2023-04-07T01:03:05;100578.31;;;18.57;49.67
44825;BME280;30542;47.928;2.138;2023-04-07T01:08:26;100568.47;;;18.58;49.43
44825;BME280;30542;47.928;2.138;2023-04-07T01:13:39;100580.44;;;18.55;49.69
44825;BME280;30542;47.928;2.138;2023-04-07T01:18:43;100589.50;;;18.54;49.22
44825;BME280;30542;47.928;2.138;2023-04-07T01:33:54;100576.66;;;18.51;49.21
44825;BME280;30542;47.928;2.138;2023-04-07T01:38:57;100576.06;;;18.49;49.42
44825;BME280;30542;47.928;2.138;2023-04-07T01:43:59;100572.88;;;18.47;49.31
44825;BME280;30542;47.928;2.138;2023-04-07T01:49:01;100572.13;;;18.52;49.40
44825;BME280;30542;47.928;2.138;2023-04-07T01:54:03;100564.16;;;18.57;49.26
44825;BME280;30542;47.928;2.138;2023-04-07T01:59:03;100563.75;;;18.65;49.68
44825;BME280;30542;47.928;2.138;2023-04-07T02:09:29;100566.06;;;18.78;49.25
44825;BME280;30542;47.928;2.138;2023-04-07T02:14:31;100578.69;;;18.83;48.82
44825;BME280;30542;47.928;2.138;2023-04-07T02:19:33;100575.19;;;18.82;48.90
44825;BME280;30542;47.928;2.138;2023-04-07T02:24:36;100574.94;;;18.84;49.16
44825;BME280;30542;47.928;2.138;2023-04-07T02:29:36;100562.91;;;18.81;49.06
44825;BME280;30542;47.928;2.138;2023-04-07T02:34:37;100573.06;;;18.84;49.28
44825;BME280;30542;47.928;2.138;2023-04-07T02:39:37;100567.16;;;18.82;49.08
44825;BME280;30542;47.928;2.138;2023-04-07T02:44:37;100566.63;;;18.80;48.59
44825;BME280;30542;47.928;2.138;2023-04-07T02:49:38;100558.06;;;18.78;48.83
44825;BME280;30542;47.928;2.138;2023-04-07T02:54:38;100565.25;;;18.78;48.62
44825;BME280;30542;47.928;2.138;2023-04-07T02:59:39;100558.31;;;18.77;48.92
44825;BME280;30542;47.928;2.138;2023-04-07T03:04:39;100563.66;;;18.77;48.48
44825;BME280;30542;47.928;2.138;2023-04-07T03:09:39;100555.66;;;18.77;48.77
44825;BME280;30542;47.928;2.138;2023-04-07T03:14:40;100555.38;;;18.78;48.86
44825;BME280;30542;47.928;2.138;2023-04-07T03:19:40;100555.69;;;18.82;48.29
44825;BME280;30542;47.928;2.138;2023-04-07T03:24:41;100552.53;;;18.85;48.27
44825;BME280;30542;47.928;2.138;2023-04-07T03:29:41;100543.47;;;18.86;48.11
44825;BME280;30542;47.928;2.138;2023-04-07T03:34:42;100542.44;;;18.87;48.32
44825;BME280;30542;47.928;2.138;2023-04-07T03:39:42;100553.34;;;18.85;48.06
44825;BME280;30542;47.928;2.138;2023-04-07T03:44:42;100555.19;;;18.85;48.21
44825;BME280;30542;47.928;2.138;2023-04-07T03:49:43;100551.72;;;18.84;48.21
44825;BME280;30542;47.928;2.138;2023-04-07T03:54:43;100548.75;;;18.81;48.31
44825;BME280;30542;47.928;2.138;2023-04-07T03:59:43;100559.44;;;18.81;48.05
44825;BME280;30542;47.928;2.138;2023-04-07T04:04:45;100551.41;;;18.81;47.80
44825;BME280;30542;47.928;2.138;2023-04-07T04:09:45;100559.44;;;18.81;47.78
44825;BME280;30542;47.928;2.138;2023-04-07T04:14:45;100547.63;;;18.77;48.20
44825;BME280;30542;47.928;2.138;2023-04-07T04:19:46;100553.72;;;18.72;47.81
44825;BME280;30542;47.928;2.138;2023-04-07T04:24:46;100558.72;;;18.69;48.49
44825;BME280;30542;47.928;2.138;2023-04-07T04:29:47;100559.78;;;18.68;48.10
44825;BME280;30542;47.928;2.138;2023-04-07T04:34:47;100564.53;;;18.66;48.62
44825;BME280;30542;47.928;2.138;2023-04-07T04:39:48;100569.38;;;18.69;48.19
44825;BME280;30542;47.928;2.138;2023-04-07T04:44:48;100574.81;;;18.74;48.36
44825;BME280;30542;47.928;2.138;2023-04-07T04:49:48;100572.72;;;18.76;48.22
44825;BME280;30542;47.928;2.138;2023-04-07T04:54:49;100574.31;;;18.77;47.99
44825;BME280;30542;47.928;2.138;2023-04-07T04:59:49;100567.91;;;18.78;48.18
44825;BME280;30542;47.928;2.138;2023-04-07T05:04:49;100570.59;;;18.78;48.50
44825;BME280;30542;47.928;2.138;2023-04-07T05:09:50;100571.13;;;18.75;48.26
44825;BME280;30542;47.928;2.138;2023-04-07T05:14:50;100573.47;;;18.71;48.77
44825;BME280;30542;47.928;2.138;2023-04-07T05:19:51;100570.78;;;18.71;48.57
44825;BME280;30542;47.928;2.138;2023-04-07T05:24:51;100576.13;;;18.71;48.11
44825;BME280;30542;47.928;2.138;2023-04-07T05:29:51;100571.59;;;18.72;48.97
44825;BME280;30542;47.928;2.138;2023-04-07T05:34:52;100576.94;;;18.72;49.06
44825;BME280;30542;47.928;2.138;2023-04-07T05:39:52;100590.28;;;18.72;48.58
44825;BME280;30542;47.928;2.138;2023-04-07T05:44:52;100602.28;;;18.74;48.89
44825;BME280;30542;47.928;2.138;2023-04-07T05:49:53;100599.88;;;18.73;48.64
44825;BME280;30542;47.928;2.138;2023-04-07T05:54:53;100606.28;;;18.72;48.68
44825;BME280;30542;47.928;2.138;2023-04-07T05:59:53;100612.44;;;18.72;49.09
44825;BME280;30542;47.928;2.138;2023-04-07T06:04:54;100619.38;;;18.73;48.86
44825;BME280;30542;47.928;2.138;2023-04-07T06:09:54;100628.19;;;18.74;49.25
44825;BME280;30542;47.928;2.138;2023-04-07T06:14:55;100630.94;;;18.79;49.72
44825;BME280;30542;47.928;2.138;2023-04-07T06:19:55;100639.16;;;18.77;50.59
44825;BME280;30542;47.928;2.138;2023-04-07T06:24:56;100647.44;;;18.76;51.22
44825;BME280;30542;47.928;2.138;2023-04-07T06:29:56;100648.22;;;18.76;51.06
44825;BME280;30542;47.928;2.138;2023-04-07T06:34:56;100645.81;;;18.75;51.28
44825;BME280;30542;47.928;2.138;2023-04-07T06:39:57;100650.84;;;18.71;51.57
44825;BME280;30542;47.928;2.138;2023-04-07T06:44:57;100650.50;;;18.68;51.65
44825;BME280;30542;47.928;2.138;2023-04-07T06:49:57;100659.25;;;18.63;52.12
44825;BME280;30542;47.928;2.138;2023-04-07T06:54:57;100653.91;;;18.63;51.83
44825;BME280;30542;47.928;2.138;2023-04-07T06:59:58;100658.97;;;18.64;51.65
44825;BME280;30542;47.928;2.138;2023-04-07T07:04:59;100663.78;;;18.62;51.80
44825;BME280;30542;47.928;2.138;2023-04-07T07:10:00;100671.50;;;18.64;51.92
44825;BME280;30542;47.928;2.138;2023-04-07T07:15:00;100666.97;;;18.64;51.82
44825;BME280;30542;47.928;2.138;2023-04-07T07:20:01;100672.06;;;18.66;51.09
44825;BME280;30542;47.928;2.138;2023-04-07T07:25:01;100683.78;;;18.65;51.49
44825;BME280;30542;47.928;2.138;2023-04-07T07:30:02;100676.59;;;18.66;50.90
44825;BME280;30542;47.928;2.138;2023-04-07T07:35:03;100682.25;;;18.69;51.05
44825;BME280;30542;47.928;2.138;2023-04-07T07:40:03;100685.28;;;18.73;50.85
44825;BME280;30542;47.928;2.138;2023-04-07T07:45:04;100695.94;;;18.73;50.44
44825;BME280;30542;47.928;2.138;2023-04-07T07:50:05;100684.72;;;18.71;50.66
44825;BME280;30542;47.928;2.138;2023-04-07T07:55:06;100684.91;;;18.69;50.81
44825;BME280;30542;47.928;2.138;2023-04-07T08:00:07;100696.75;;;18.73;50.90
44825;BME280;30542;47.928;2.138;2023-04-07T08:05:08;100693.59;;;18.76;52.39
44825;BME280;30542;47.928;2.138;2023-04-07T08:10:08;100690.75;;;18.83;53.49
44825;BME280;30542;47.928;2.138;2023-04-07T08:15:08;100696.72;;;18.90;53.56
44825;BME280;30542;47.928;2.138;2023-04-07T08:20:09;100696.72;;;18.90;53.66
44825;BME280;30542;47.928;2.138;2023-04-07T08:25:10;100712.72;;;18.90;53.19
44825;BME280;30542;47.928;2.138;2023-04-07T08:30:11;100720.72;;;18.90;53.15
44825;BME280;30542;47.928;2.138;2023-04-07T08:35:12;100716.88;;;18.81;53.11
44825;BME280;30542;47.928;2.138;2023-04-07T08:40:12;100736.03;;;18.78;52.92
44825;BME280;30542;47.928;2.138;2023-04-07T08:45:13;100732.81;;;18.76;53.37
44825;BME280;30542;47.928;2.138;2023-04-07T08:50:16;100732.34;;;18.79;52.72
44825;BME280;30542;47.928;2.138;2023-04-07T08:55:17;100730.22;;;18.81;52.84
44825;BME280;30542;47.928;2.138;2023-04-07T09:00:17;100732.88;;;18.81;52.79
44825;BME280;30542;47.928;2.138;2023-04-07T09:05:18;100728.13;;;18.83;52.85
44825;BME280;30542;47.928;2.138;2023-04-07T09:10:18;100735.13;;;18.89;52.75
44825;BME280;30542;47.928;2.138;2023-04-07T09:15:19;100733.09;;;18.96;52.56
44825;BME280;30542;47.928;2.138;2023-04-07T09:20:19;100737.13;;;18.99;52.51
44825;BME280;30542;47.928;2.138;2023-04-07T09:25:21;100732.59;;;18.99;52.44
44825;BME280;30542;47.928;2.138;2023-04-07T09:30:23;100740.38;;;19.01;51.92
44825;BME280;30542;47.928;2.138;2023-04-07T09:35:23;100738.81;;;19.05;51.99
44825;BME280;30542;47.928;2.138;2023-04-07T09:40:26;100738.56;;;19.06;51.67
44825;BME280;30542;47.928;2.138;2023-04-07T09:45:28;100744.72;;;19.07;51.87
44825;BME280;30542;47.928;2.138;2023-04-07T09:50:34;100733.22;;;19.06;51.70
44825;BME280;30542;47.928;2.138;2023-04-07T09:55:35;100752.22;;;19.10;51.11
44825;BME280;30542;47.928;2.138;2023-04-07T10:00:36;100740.75;;;19.09;51.19
44825;BME280;30542;47.928;2.138;2023-04-07T10:05:37;100744.78;;;19.12;51.30
44825;BME280;30542;47.928;2.138;2023-04-07T10:10:40;100742.41;;;19.16;51.20
44825;BME280;30542;47.928;2.138;2023-04-07T10:15:42;100743.00;;;19.18;50.84
44825;BME280;30542;47.928;2.138;2023-04-07T10:20:43;100734.41;;;19.16;50.97
44825;BME280;30542;47.928;2.138;2023-04-07T10:25:45;100734.97;;;19.18;50.50
44825;BME280;30542;47.928;2.138;2023-04-07T10:30:47;100729.16;;;19.21;50.71
44825;BME280;30542;47.928;2.138;2023-04-07T10:36:06;100734.56;;;19.26;50.67
44825;BME280;30542;47.928;2.138;2023-04-07T10:41:30;100726.84;;;19.29;50.26
44825;BME280;30542;47.928;2.138;2023-04-07T10:57:13;100717.88;;;19.41;50.61
44825;BME280;30542;47.928;2.138;2023-04-07T11:07:14;100721.63;;;19.40;50.22
44825;BME280;30542;47.928;2.138;2023-04-07T11:12:22;100717.59;;;19.37;50.52
44825;BME280;30542;47.928;2.138;2023-04-07T11:17:22;100713.06;;;19.37;50.15
44825;BME280;30542;47.928;2.138;2023-04-07T11:22:23;100711.19;;;19.38;50.19
44825;BME280;30542;47.928;2.138;2023-04-07T11:27:23;100713.28;;;19.36;50.28
44825;BME280;30542;47.928;2.138;2023-04-07T11:32:23;100705.84;;;19.38;50.04
44825;BME280;30542;47.928;2.138;2023-04-07T11:37:25;100687.69;;;19.40;50.22
44825;BME280;30542;47.928;2.138;2023-04-07T11:42:37;100689.81;;;19.38;50.05
44825;BME280;30542;47.928;2.138;2023-04-07T11:47:39;100685.03;;;19.40;50.04
44825;BME280;30542;47.928;2.138;2023-04-07T11:52:48;100694.91;;;19.40;50.21
44825;BME280;30542;47.928;2.138;2023-04-07T11:57:49;100686.88;;;19.40;50.22
44825;BME280;30542;47.928;2.138;2023-04-07T12:02:50;100686.66;;;19.41;49.96
44825;BME280;30542;47.928;2.138;2023-04-07T12:07:52;100681.31;;;19.41;49.93
44825;BME280;30542;47.928;2.138;2023-04-07T12:12:52;100678.88;;;19.40;49.72
44825;BME280;30542;47.928;2.138;2023-04-07T12:17:52;100682.34;;;19.40;50.08
44825;BME280;30542;47.928;2.138;2023-04-07T12:22:54;100671.94;;;19.38;49.93
44825;BME280;30542;47.928;2.138;2023-04-07T12:27:55;100671.94;;;19.38;49.93
44825;BME280;30542;47.928;2.138;2023-04-07T12:32:55;100656.97;;;19.37;49.71
44825;BME280;30542;47.928;2.138;2023-04-07T12:37:56;100651.06;;;19.35;49.90
44825;BME280;30542;47.928;2.138;2023-04-07T12:42:57;100658.53;;;19.33;49.77
44825;BME280;30542;47.928;2.138;2023-04-07T12:47:57;100656.16;;;19.37;50.09
44825;BME280;30542;47.928;2.138;2023-04-07T12:52:58;100660.97;;;19.40;50.08
44825;BME280;30542;47.928;2.138;2023-04-07T12:57:59;100649.44;;;19.34;50.00
44825;BME280;30542;47.928;2.138;2023-04-07T13:02:59;100653.72;;;19.35;50.07
44825;BME280;30542;47.928;2.138;2023-04-07T13:08:00;100656.88;;;19.32;49.68
44825;BME280;30542;47.928;2.138;2023-04-07T13:13:00;100661.38;;;19.27;49.94
44825;BME280;30542;47.928;2.138;2023-04-07T13:18:01;100651.44;;;19.22;50.02
44825;BME280;30542;47.928;2.138;2023-04-07T13:23:01;100638.81;;;19.12;49.80
44825;BME280;30542;47.928;2.138;2023-04-07T13:28:01;100647.41;;;19.20;49.77
44825;BME280;30542;47.928;2.138;2023-04-07T13:33:02;100650.34;;;19.18;50.22
44825;BME280;30542;47.928;2.138;2023-04-07T13:38:03;100648.97;;;19.16;50.33
44825;BME280;30542;47.928;2.138;2023-04-07T13:43:03;100651.63;;;19.16;50.03
44825;BME280;30542;47.928;2.138;2023-04-07T13:48:04;100640.16;;;19.15;50.02
44825;BME280;30542;47.928;2.138;2023-04-07T13:53:05;100637.75;;;19.13;49.80
44825;BME280;30542;47.928;2.138;2023-04-07T13:58:05;100630.78;;;19.12;49.76
44825;BME280;30542;47.928;2.138;2023-04-07T14:03:07;100633.19;;;19.14;49.48
44825;BME280;30542;47.928;2.138;2023-04-07T14:08:07;100629.16;;;19.11;49.63
44825;BME280;30542;47.928;2.138;2023-04-07T14:13:07;100631.59;;;19.13;49.78
44825;BME280;30542;47.928;2.138;2023-04-07T14:18:08;100617.97;;;19.15;49.83
44825;BME280;30542;47.928;2.138;2023-04-07T14:23:08;100622.53;;;19.14;49.64
44825;BME280;30542;47.928;2.138;2023-04-07T14:28:09;100618.03;;;19.20;49.42
44825;BME280;30542;47.928;2.138;2023-04-07T14:33:09;100616.19;;;19.20;49.63
44825;BME280;30542;47.928;2.138;2023-04-07T14:38:09;100608.19;;;19.20;49.34
44825;BME280;30542;47.928;2.138;2023-04-07T14:43:10;100610.84;;;19.20;48.98
44825;BME280;30542;47.928;2.138;2023-04-07T14:48:11;100593.72;;;19.16;49.28
44825;BME280;30542;47.928;2.138;2023-04-07T14:53:12;100594.00;;;19.20;49.01
44825;BME280;30542;47.928;2.138;2023-04-07T14:58:12;100603.88;;;19.19;48.87
44825;BME280;30542;47.928;2.138;2023-04-07T15:03:13;100603.06;;;19.19;49.44
44825;BME280;30542;47.928;2.138;2023-04-07T15:08:13;100599.34;;;19.20;48.93
44825;BME280;30542;47.928;2.138;2023-04-07T15:13:13;100601.22;;;19.19;48.87
44825;BME280;30542;47.928;2.138;2023-04-07T15:18:14;100601.47;;;19.18;49.09
44825;BME280;30542;47.928;2.138;2023-04-07T15:23:14;100607.31;;;19.15;49.00
44825;BME280;30542;47.928;2.138;2023-04-07T15:28:15;100605.38;;;19.10;48.70
44825;BME280;30542;47.928;2.138;2023-04-07T15:33:16;100620.34;;;19.11;48.96
44825;BME280;30542;47.928;2.138;2023-04-07T15:38:17;100615.75;;;19.06;48.92
44825;BME280;30542;47.928;2.138;2023-04-07T15:43:17;100619.50;;;19.05;48.64
44825;BME280;30542;47.928;2.138;2023-04-07T15:48:18;100621.34;;;19.05;48.89
44825;BME280;30542;47.928;2.138;2023-04-07T15:53:18;100628.03;;;19.07;48.79
44825;BME280;30542;47.928;2.138;2023-04-07T15:58:18;100625.44;;;19.12;48.39
44825;BME280;30542;47.928;2.138;2023-04-07T16:03:18;100623.91;;;19.17;48.24
44825;BME280;30542;47.928;2.138;2023-04-07T16:08:20;100617.81;;;19.21;48.41
44825;BME280;30542;47.928;2.138;2023-04-07T16:13:21;100622.13;;;19.27;48.67
44825;BME280;30542;47.928;2.138;2023-04-07T16:18:21;100624.25;;;19.25;48.19
44825;BME280;30542;47.928;2.138;2023-04-07T16:23:22;100622.66;;;19.24;48.47
44825;BME280;30542;47.928;2.138;2023-04-07T16:28:22;100626.66;;;19.27;48.58
44825;BME280;30542;47.928;2.138;2023-04-07T16:33:23;100622.94;;;19.28;48.44
44825;BME280;30542;47.928;2.138;2023-04-07T16:38:24;100620.81;;;19.30;48.85
44825;BME280;30542;47.928;2.138;2023-04-07T16:43:26;100622.44;;;19.31;49.04
44825;BME280;30542;47.928;2.138;2023-04-07T16:48:26;100626.72;;;19.32;48.86
44825;BME280;30542;47.928;2.138;2023-04-07T16:53:27;100630.44;;;19.31;48.84
44825;BME280;30542;47.928;2.138;2023-04-07T16:58:27;100637.66;;;19.30;48.88
44825;BME280;30542;47.928;2.138;2023-04-07T17:03:27;100635.53;;;19.32;48.72
44825;BME280;30542;47.928;2.138;2023-04-07T17:08:27;100638.75;;;19.34;48.60
44825;BME280;30542;47.928;2.138;2023-04-07T17:13:28;100636.63;;;19.36;48.98
44825;BME280;30542;47.928;2.138;2023-04-07T17:18:28;100652.16;;;19.40;48.86
44825;BME280;30542;47.928;2.138;2023-04-07T17:23:29;100652.16;;;19.40;48.72
44825;BME280;30542;47.928;2.138;2023-04-07T17:28:29;100652.97;;;19.40;48.61
44825;BME280;30542;47.928;2.138;2023-04-07T17:33:30;100658.09;;;19.42;48.79
44825;BME280;30542;47.928;2.138;2023-04-07T17:38:30;100662.63;;;19.41;48.76
44825;BME280;30542;47.928;2.138;2023-04-07T17:43:31;100665.03;;;19.43;48.91
44825;BME280;30542;47.928;2.138;2023-04-07T17:48:31;100672.47;;;19.41;48.88
44825;BME280;30542;47.928;2.138;2023-04-07T17:53:32;100680.00;;;19.44;49.46
44825;BME280;30542;47.928;2.138;2023-04-07T17:58:32;100680.78;;;19.44;49.59
44825;BME280;30542;47.928;2.138;2023-04-07T18:03:33;100687.78;;;19.45;50.03
44825;BME280;30542;47.928;2.138;2023-04-07T18:08:33;100693.34;;;19.44;49.56
44825;BME280;30542;47.928;2.138;2023-04-07T18:13:33;100695.72;;;19.40;49.88
44825;BME280;30542;47.928;2.138;2023-04-07T18:18:35;100708.25;;;19.40;49.95
44825;BME280;30542;47.928;2.138;2023-04-07T18:23:37;100703.97;;;19.38;50.43
44825;BME280;30542;47.928;2.138;2023-04-07T18:28:37;100715.72;;;19.37;50.02
44825;BME280;30542;47.928;2.138;2023-04-07T18:33:37;100731.19;;;19.35;50.48
44825;BME280;30542;47.928;2.138;2023-04-07T18:38:37;100735.72;;;19.35;50.22
44825;BME280;30542;47.928;2.138;2023-04-07T18:43:38;100734.66;;;19.36;50.28
44825;BME280;30542;47.928;2.138;2023-04-07T18:48:38;100739.19;;;19.35;50.18
44825;BME280;30542;47.928;2.138;2023-04-07T18:53:40;100739.69;;;19.32;50.16
44825;BME280;30542;47.928;2.138;2023-04-07T18:58:40;100759.22;;;19.33;50.12
44825;BME280;30542;47.928;2.138;2023-04-07T19:03:43;100753.78;;;19.28;50.43
44825;BME280;30542;47.928;2.138;2023-04-07T19:08:44;100775.25;;;19.33;50.15
44825;BME280;30542;47.928;2.138;2023-04-07T19:13:45;100772.81;;;19.31;50.65
44825;BME280;30542;47.928;2.138;2023-04-07T19:18:45;100774.94;;;19.29;50.20
44825;BME280;30542;47.928;2.138;2023-04-07T19:23:46;100790.75;;;19.36;50.34
44825;BME280;30542;47.928;2.138;2023-04-07T19:28:46;100794.22;;;19.36;50.28
44825;BME280;30542;47.928;2.138;2023-04-07T19:33:48;100792.63;;;19.35;50.32
44825;BME280;30542;47.928;2.138;2023-04-07T19:38:48;100801.44;;;19.36;50.40
44825;BME280;30542;47.928;2.138;2023-04-07T19:43:48;100804.09;;;19.36;50.50
44825;BME280;30542;47.928;2.138;2023-04-07T19:48:49;100814.25;;;19.34;50.22
44825;BME280;30542;47.928;2.138;2023-04-07T19:53:49;100811.81;;;19.32;50.62
44825;BME280;30542;47.928;2.138;2023-04-07T19:58:49;100819.81;;;19.32;50.66
44825;BME280;30542;47.928;2.138;2023-04-07T20:03:50;100821.69;;;19.32;50.21
44825;BME280;30542;47.928;2.138;2023-04-07T20:08:50;100822.75;;;19.31;50.41
44825;BME280;30542;47.928;2.138;2023-04-07T20:13:50;100830.75;;;19.31;50.56
44825;BME280;30542;47.928;2.138;2023-04-07T20:18:51;100835.53;;;19.29;50.47
44825;BME280;30542;47.928;2.138;2023-04-07T20:23:51;100836.59;;;19.28;50.31
44825;BME280;30542;47.928;2.138;2023-04-07T20:28:52;100843.78;;;19.27;50.65
44825;BME280;30542;47.928;2.138;2023-04-07T20:33:52;100842.19;;;19.26;50.91
44825;BME280;30542;47.928;2.138;2023-04-07T20:38:53;100849.38;;;19.26;50.39
44825;BME280;30542;47.928;2.138;2023-04-07T20:43:53;100848.81;;;19.24;50.53
44825;BME280;30542;47.928;2.138;2023-04-07T20:48:54;100854.72;;;19.26;50.75
44825;BME280;30542;47.928;2.138;2023-04-07T20:53:55;100853.13;;;19.25;50.51
44825;BME280;30542;47.928;2.138;2023-04-07T20:58:56;100849.31;;;19.21;50.37
44825;BME280;30542;47.928;2.138;2023-04-07T21:03:56;100857.88;;;19.23;50.44
44825;BME280;30542;47.928;2.138;2023-04-07T21:08:56;100860.00;;;19.21;50.21
44825;BME280;30542;47.928;2.138;2023-04-07T21:13:57;100870.09;;;19.19;50.11
44825;BME280;30542;47.928;2.138;2023-04-07T21:18:57;100873.25;;;19.16;50.34
44825;BME280;30542;47.928;2.138;2023-04-07T21:23:57;100879.72;;;19.20;50.14
44825;BME280;30542;47.928;2.138;2023-04-07T21:28:58;100878.69;;;19.21;50.24
44825;BME280;30542;47.928;2.138;2023-04-07T21:33:58;100879.72;;;19.20;49.73
44825;BME280;30542;47.928;2.138;2023-04-07T21:38:58;100891.47;;;19.19;50.04
44825;BME280;30542;47.928;2.138;2023-04-07T21:43:59;100890.19;;;19.21;49.58
44825;BME280;30542;47.928;2.138;2023-04-07T21:49:00;100893.34;;;19.18;49.78
44825;BME280;30542;47.928;2.138;2023-04-07T21:54:00;100896.34;;;19.22;49.71
44825;BME280;30542;47.928;2.138;2023-04-07T21:59:00;100893.41;;;19.23;49.69
44825;BME280;30542;47.928;2.138;2023-04-07T22:04:02;100895.75;;;19.20;49.24
44825;BME280;30542;47.928;2.138;2023-04-07T22:09:04;100891.94;;;19.16;49.25
44825;BME280;30542;47.928;2.138;2023-04-07T22:14:05;100898.59;;;19.13;49.71
44825;BME280;30542;47.928;2.138;2023-04-07T22:19:05;100887.91;;;19.13;49.48
44825;BME280;30542;47.928;2.138;2023-04-07T22:24:06;100901.28;;;19.13;49.53
44825;BME280;30542;47.928;2.138;2023-04-07T22:29:06;100903.13;;;19.12;49.61
44825;BME280;30542;47.928;2.138;2023-04-07T22:34:08;100905.00;;;19.12;49.15
44825;BME280;30542;47.928;2.138;2023-04-07T22:39:09;100895.34;;;19.11;49.32
44825;BME280;30542;47.928;2.138;2023-04-07T22:44:09;100902.34;;;19.12;49.27
44825;BME280;30542;47.928;2.138;2023-04-07T22:49:10;100909.50;;;19.11;48.84
44825;BME280;30542;47.928;2.138;2023-04-07T22:54:10;100900.69;;;19.11;48.84
44825;BME280;30542;47.928;2.138;2023-04-07T22:59:11;100904.41;;;19.10;49.13
44825;BME280;30542;47.928;2.138;2023-04-07T23:04:11;100913.25;;;19.10;48.85
44825;BME280;30542;47.928;2.138;2023-04-07T23:09:11;100906.28;;;19.09;48.79
44825;BME280;30542;47.928;2.138;2023-04-07T23:14:13;100912.69;;;19.08;48.78
44825;BME280;30542;47.928;2.138;2023-04-07T23:19:13;100911.88;;;19.08;48.83
44825;BME280;30542;47.928;2.138;2023-04-07T23:24:14;100918.50;;;19.05;48.71
44825;BME280;30542;47.928;2.138;2023-04-07T23:29:15;100918.50;;;19.05;48.51
44825;BME280;30542;47.928;2.138;2023-04-07T23:34:15;100921.16;;;19.05;48.92
44825;BME280;30542;47.928;2.138;2023-04-07T23:39:16;100921.66;;;19.02;48.87
44825;BME280;30542;47.928;2.138;2023-04-07T23:44:16;100925.63;;;19.00;48.80
44825;BME280;30542;47.928;2.138;2023-04-07T23:49:16;100927.97;;;18.96;49.08
44825;BME280;30542;47.928;2.138;2023-04-07T23:54:17;100924.25;;;18.97;49.02
44825;BME280;30542;47.928;2.138;2023-04-07T23:59:17;100933.78;;;18.93;48.79
